createdAt,value
2018-09-17T00:02:17.297Z,100426.01
2018-09-17T00:04:49.981Z,100422.43
2018-09-17T00:07:22.435Z,100419.89
2018-09-17T00:09:56.462Z,100420.58
2018-09-17T00:12:29.084Z,100414.27
2018-09-17T00:15:04.530Z,100418.80
2018-09-17T00:17:39.512Z,100414.81
2018-09-17T00:20:12.137Z,100413.09
2018-09-17T00:22:44.695Z,100417.42
2018-09-17T00:25:17.136Z,100426.34
2018-09-17T00:27:49.606Z,100425.03
2018-09-17T00:30:22.699Z,100414.67
2018-09-17T00:32:55.177Z,100416.89
2018-09-17T00:35:28.012Z,100416.01
2018-09-17T00:38:00.960Z,100417.13
2018-09-17T00:40:33.485Z,100416.91
2018-09-17T00:43:06.100Z,100421.05
2018-09-17T00:45:39.633Z,100423.70
2018-09-17T00:48:12.512Z,100417.39
2018-09-17T00:50:45.116Z,100419.05
2018-09-17T00:53:20.107Z,100409.77
2018-09-17T00:55:52.728Z,100415.08
2018-09-17T00:58:25.256Z,100415.86
2018-09-17T01:00:58.390Z,100425.15
2018-09-17T01:03:30.975Z,100428.00
2018-09-17T01:06:03.546Z,100429.83
2018-09-17T01:08:37.202Z,100427.06
2018-09-17T01:11:09.879Z,100423.91
2018-09-17T01:13:42.456Z,100429.24
2018-09-17T01:16:15.565Z,100432.11
2018-09-17T01:18:48.605Z,100433.31
2018-09-17T01:21:21.561Z,100432.88
2018-09-17T01:23:56.739Z,100430.88
2018-09-17T01:26:29.788Z,100432.78
2018-09-17T01:29:03.224Z,100435.66
2018-09-17T01:31:37.583Z,100434.98
2018-09-17T01:34:10.421Z,100431.16
2018-09-17T01:36:42.966Z,100432.06
2018-09-17T01:39:15.936Z,100432.39
2018-09-17T01:41:48.526Z,100435.48
2018-09-17T01:44:21.086Z,100434.04
2018-09-17T01:46:54.292Z,100446.92
2018-09-17T01:49:27.092Z,100446.92
2018-09-17T01:51:59.648Z,100440.52
2018-09-17T01:54:33.528Z,100436.58
2018-09-17T01:57:05.885Z,100435.30
2018-09-17T01:59:38.422Z,100427.48
2018-09-17T02:02:11.399Z,100423.34
2018-09-17T02:04:44.168Z,100426.83
2018-09-17T02:07:16.711Z,100424.44
2018-09-17T02:09:49.468Z,100427.14
2018-09-17T02:12:22.061Z,100422.85
2018-09-17T02:14:54.461Z,100422.19
2018-09-17T02:17:27.597Z,100413.96
2018-09-17T02:20:00.101Z,100411.56
2018-09-17T02:22:32.591Z,100404.66
2018-09-17T02:25:06.708Z,100405.32
2018-09-17T02:27:39.537Z,100399.89
2018-09-17T02:30:13.535Z,100398.23
2018-09-17T02:32:46.562Z,100404.53
2018-09-17T02:35:19.101Z,100396.85
2018-09-17T02:37:51.665Z,100399.11
2018-09-17T02:40:24.622Z,100396.87
2018-09-17T02:42:57.519Z,100408.02
2018-09-17T02:45:30.006Z,100403.05
2018-09-17T02:48:04.100Z,100405.38
2018-09-17T02:50:37.048Z,100400.14
2018-09-17T02:53:09.544Z,100402.69
2018-09-17T02:55:42.420Z,100400.43
2018-09-17T02:58:14.880Z,100398.59
2018-09-17T03:00:47.423Z,100407.47
2018-09-17T03:03:21.844Z,100409.94
2018-09-17T03:05:55.272Z,100414.52
2018-09-17T03:08:27.822Z,100417.14
2018-09-17T03:11:00.851Z,100419.19
2018-09-17T03:13:33.336Z,100424.84
2018-09-17T03:16:05.875Z,100434.30
2018-09-17T03:18:56.013Z,100435.03
2018-09-17T03:21:28.985Z,100437.32
2018-09-17T03:24:01.531Z,100434.75
2018-09-17T03:26:34.459Z,100436.27
2018-09-17T03:29:07.203Z,100436.45
2018-09-17T03:31:42.237Z,100436.04
2018-09-17T03:34:16.173Z,100441.13
2018-09-17T03:36:48.832Z,100451.02
2018-09-17T03:39:21.403Z,100448.25
2018-09-17T03:41:54.452Z,100444.06
2018-09-17T03:44:27.329Z,100439.73
2018-09-17T03:46:59.961Z,100437.36
2018-09-17T03:49:32.755Z,100435.19
2018-09-17T03:52:05.763Z,100438.56
2018-09-17T03:54:38.509Z,100441.52
2018-09-17T03:57:11.137Z,100452.89
2018-09-17T03:59:44.157Z,100459.56
2018-09-17T04:02:17.093Z,100453.98
2018-09-17T04:04:49.835Z,100452.36
2018-09-17T04:07:22.846Z,100448.48
2018-09-17T04:09:55.398Z,100448.65
2018-09-17T04:12:28.256Z,100446.64
2018-09-17T04:15:00.942Z,100441.17
2018-09-17T04:17:34.692Z,100442.70
2018-09-17T04:20:08.104Z,100439.59
2018-09-17T04:22:41.911Z,100443.60
2018-09-17T04:25:15.155Z,100437.40
2018-09-17T04:27:47.748Z,100433.64
2018-09-17T04:30:20.327Z,100429.45
2018-09-17T04:32:54.407Z,100427.73
2018-09-17T04:35:26.758Z,100429.48
2018-09-17T04:37:59.177Z,100430.09
2018-09-17T04:40:33.037Z,100428.23
2018-09-17T04:43:05.775Z,100427.89
2018-09-17T04:45:38.453Z,100431.19
2018-09-17T04:48:11.259Z,100432.65
2018-09-17T04:50:44.022Z,100433.31
2018-09-17T04:53:16.567Z,100424.31
2018-09-17T04:55:51.017Z,100422.25
2018-09-17T04:58:23.632Z,100427.37
2018-09-17T05:00:56.242Z,100427.48
2018-09-17T05:03:29.142Z,100430.41
2018-09-17T05:06:01.824Z,100436.53
2018-09-17T05:08:35.851Z,100434.63
2018-09-17T05:11:08.568Z,100436.44
2018-09-17T05:13:41.091Z,100443.62
2018-09-17T05:16:14.645Z,100441.27
2018-09-17T05:18:47.923Z,100440.80
2018-09-17T05:21:20.935Z,100447.55
2018-09-17T05:23:53.377Z,100444.77
2018-09-17T05:26:26.895Z,100445.00
2018-09-17T05:28:59.435Z,100446.92
2018-09-17T05:31:32.492Z,100445.75
2018-09-17T05:34:07.141Z,100443.45
2018-09-17T05:36:40.040Z,100445.17
2018-09-17T05:39:15.034Z,100449.36
2018-09-17T05:41:49.116Z,100448.32
2018-09-17T05:44:21.681Z,100447.86
2018-09-17T05:46:55.124Z,100440.31
2018-09-17T05:49:29.112Z,100444.67
2018-09-17T05:52:02.647Z,100452.22
2018-09-17T05:54:35.387Z,100448.07
2018-09-17T05:57:08.868Z,100444.19
2018-09-17T05:59:43.797Z,100452.65
2018-09-17T06:02:17.476Z,100462.52
2018-09-17T06:04:50.959Z,100464.23
2018-09-17T06:07:24.234Z,100468.50
2018-09-17T06:09:57.409Z,100472.36
2018-09-17T06:12:30.627Z,100479.62
2018-09-17T06:15:05.552Z,100479.44
2018-09-17T06:17:38.649Z,100486.08
2018-09-17T06:20:11.187Z,100486.32
2018-09-17T06:22:45.212Z,100491.41
2018-09-17T06:25:17.771Z,100492.86
2018-09-17T06:27:52.561Z,100493.88
2018-09-17T06:30:25.605Z,100489.77
2018-09-17T06:32:58.712Z,100491.37
2018-09-17T06:35:32.191Z,100501.56
2018-09-17T06:38:05.370Z,100501.75
2018-09-17T06:40:37.951Z,100500.70
2018-09-17T06:43:11.887Z,100503.05
2018-09-17T06:45:44.767Z,100498.63
2018-09-17T06:48:18.086Z,100501.64
2018-09-17T06:50:53.201Z,100509.24
2018-09-17T06:53:26.750Z,100508.48
2018-09-17T06:55:59.318Z,100514.55
2018-09-17T06:58:31.960Z,100513.14
2018-09-17T07:01:05.894Z,100511.36
2018-09-17T07:03:39.385Z,100509.42
2018-09-17T07:06:13.948Z,100507.06
2018-09-17T07:08:49.248Z,100502.93
2018-09-17T07:11:25.613Z,100497.41
2018-09-17T07:13:58.193Z,100494.66
2018-09-17T07:16:31.036Z,100490.41
2018-09-17T07:19:03.805Z,100493.01
2018-09-17T07:21:37.227Z,100493.25
2018-09-17T07:24:11.128Z,100488.98
2018-09-17T07:26:45.375Z,100483.98
2018-09-17T07:29:21.001Z,100479.03
2018-09-17T07:31:56.836Z,100477.81
2018-09-17T07:34:29.402Z,100473.55
2018-09-17T07:37:02.025Z,100472.88
2018-09-17T07:39:34.988Z,100470.70
2018-09-17T07:42:07.504Z,100466.61
2018-09-17T07:44:40.937Z,100465.55
2018-09-17T07:47:14.348Z,100467.37
2018-09-17T07:49:50.068Z,100460.53
2018-09-17T07:52:38.444Z,100455.18
2018-09-17T07:55:13.940Z,100453.64
2018-09-17T07:57:46.846Z,100454.67
2018-09-17T08:00:20.304Z,100457.54
2018-09-17T08:02:53.682Z,100458.84
2018-09-17T08:05:27.445Z,100462.72
2018-09-17T08:08:00.521Z,100464.71
2018-09-17T08:10:34.377Z,100463.33
2018-09-17T08:13:08.288Z,100475.37
2018-09-17T08:15:41.369Z,100466.09
2018-09-17T08:18:14.831Z,100465.61
2018-09-17T08:20:48.434Z,100461.31
2018-09-17T08:23:32.168Z,100454.81
2018-09-17T08:26:08.414Z,100450.22
2018-09-17T08:28:42.395Z,100450.08
2018-09-17T08:31:16.681Z,100447.26
2018-09-17T08:33:52.824Z,100445.18
2018-09-17T08:36:28.062Z,100437.21
2018-09-17T08:39:01.030Z,100439.06
2018-09-17T08:41:33.720Z,100436.98
2018-09-17T08:44:11.592Z,100433.91
2018-09-17T08:46:46.873Z,100428.55
2018-09-17T08:49:22.592Z,100429.86
2018-09-17T08:51:59.847Z,100430.55
2018-09-17T08:54:42.352Z,100432.47
2018-09-17T08:57:23.294Z,100432.45
2018-09-17T09:00:04.448Z,100434.55
2018-09-17T09:02:43.970Z,100435.09
2018-09-17T09:05:23.297Z,100434.16
2018-09-17T09:08:06.419Z,100428.91
2018-09-17T09:11:12.286Z,100427.56
2018-09-17T09:14:07.384Z,100434.30
2018-09-17T09:16:47.993Z,100439.97
2018-09-17T09:19:21.236Z,100433.87
2018-09-17T09:21:55.228Z,100431.45
2018-09-17T09:24:30.000Z,100433.63
2018-09-17T09:27:16.063Z,100429.34
2018-09-17T09:29:51.080Z,100433.03
2018-09-17T09:32:27.421Z,100429.66
2018-09-17T09:35:10.170Z,100427.41
2018-09-17T09:37:46.834Z,100423.61
2018-09-17T09:40:34.690Z,100418.87
2018-09-17T09:43:14.944Z,100418.14
2018-09-17T09:45:49.360Z,100414.84
2018-09-17T09:48:32.289Z,100419.73
2018-09-17T09:51:22.628Z,100417.53
2018-09-17T09:53:58.582Z,100410.72
2018-09-17T09:56:33.668Z,100403.66
2018-09-17T09:59:15.371Z,100403.00
2018-09-17T10:02:16.768Z,100398.80
2018-09-17T10:04:50.728Z,100392.13
2018-09-17T10:07:29.802Z,100389.28
2018-09-17T10:10:11.970Z,100383.55
2018-09-17T10:12:52.764Z,100377.00
2018-09-17T10:15:47.796Z,100382.17
2018-09-17T10:18:27.286Z,100386.34
2018-09-17T10:21:00.568Z,100387.30
2018-09-17T10:23:36.654Z,100390.09
2018-09-17T10:26:12.964Z,100385.91
2018-09-17T10:28:45.747Z,100387.67
2018-09-17T10:31:26.406Z,100385.17
2018-09-17T10:34:10.211Z,100381.73
2018-09-17T10:36:49.976Z,100378.81
2018-09-17T10:39:26.472Z,100376.61
2018-09-17T10:42:04.543Z,100379.73
2018-09-17T10:44:39.744Z,100373.13
2018-09-17T10:47:14.477Z,100370.37
2018-09-17T10:49:50.573Z,100368.41
2018-09-17T10:52:28.084Z,100366.72
2018-09-17T10:55:12.094Z,100362.59
2018-09-17T10:57:46.676Z,100363.11
2018-09-17T11:00:23.401Z,100364.42
2018-09-17T11:03:00.831Z,100355.83
2018-09-17T11:05:39.390Z,100361.27
2018-09-17T11:08:15.213Z,100356.77
2018-09-17T11:10:49.199Z,100354.72
2018-09-17T11:13:25.229Z,100343.02
2018-09-17T11:16:00.152Z,100345.93
2018-09-17T11:18:34.535Z,100340.67
2018-09-17T11:21:10.751Z,100340.48
2018-09-17T11:23:45.096Z,100329.92
2018-09-17T11:26:18.062Z,100330.18
2018-09-17T11:28:54.721Z,100327.30
2018-09-17T11:31:32.720Z,100325.53
2018-09-17T11:34:08.759Z,100323.33
2018-09-17T11:36:42.622Z,100327.61
2018-09-17T11:39:20.068Z,100317.70
2018-09-17T11:41:52.691Z,100311.79
2018-09-17T11:44:25.277Z,100314.62
2018-09-17T11:46:57.836Z,100323.19
2018-09-17T11:49:36.307Z,100321.47
2018-09-17T11:52:09.999Z,100318.45
2018-09-17T11:54:43.672Z,100319.71
2018-09-17T11:57:17.604Z,100318.42
2018-09-17T11:59:51.136Z,100311.28
2018-09-17T12:02:29.172Z,100304.28
2018-09-17T12:05:58.393Z,100300.53
2018-09-17T12:08:32.956Z,100296.67
2018-09-17T12:11:06.140Z,100293.51
2018-09-17T12:13:39.185Z,100293.94
2018-09-17T12:16:12.568Z,100290.02
2018-09-17T12:18:45.132Z,100287.65
2018-09-17T12:21:21.078Z,100286.28
2018-09-17T12:23:54.106Z,100288.02
2018-09-17T12:26:27.318Z,100281.37
2018-09-17T12:29:01.596Z,100278.45
2018-09-17T12:31:35.524Z,100274.96
2018-09-17T12:34:11.009Z,100269.67
2018-09-17T12:36:44.072Z,100270.81
2018-09-17T12:39:16.617Z,100267.69
2018-09-17T12:41:49.769Z,100263.77
2018-09-17T12:44:24.980Z,100256.31
2018-09-17T12:47:01.297Z,100254.34
2018-09-17T12:49:34.516Z,100256.42
2018-09-17T12:52:09.868Z,100248.05
2018-09-17T12:54:42.534Z,100243.73
2018-09-17T12:57:17.770Z,100246.94
2018-09-17T12:59:54.684Z,100243.36
2018-09-17T13:02:29.922Z,100231.91
2018-09-17T13:05:06.151Z,100236.36
2018-09-17T13:07:39.450Z,100231.33
2018-09-17T13:10:16.228Z,100236.27
2018-09-17T13:12:49.424Z,100230.13
2018-09-17T13:15:21.982Z,100224.88
2018-09-17T13:17:54.696Z,100223.94
2018-09-17T13:20:31.124Z,100224.95
2018-09-17T13:23:05.673Z,100222.61
2018-09-17T13:25:40.492Z,100217.59
2018-09-17T13:28:15.404Z,100209.20
2018-09-17T13:30:49.667Z,100208.45
2018-09-17T13:33:23.339Z,100204.19
2018-09-17T13:35:56.648Z,100205.94
2018-09-17T13:38:31.936Z,100198.36
2018-09-17T13:41:05.100Z,100200.34
2018-09-17T13:43:40.538Z,100196.02
2018-09-17T13:46:14.824Z,100195.49
2018-09-17T13:48:47.527Z,100184.66
2018-09-17T13:51:20.096Z,100187.36
2018-09-17T13:53:53.707Z,100189.08
2018-09-17T13:56:30.443Z,100185.11
2018-09-17T13:59:05.284Z,100178.16
2018-09-17T14:01:41.067Z,100180.56
2018-09-17T14:04:16.787Z,100179.06
2018-09-17T14:06:49.778Z,100176.78
2018-09-17T14:09:24.901Z,100174.16
2018-09-17T14:11:59.086Z,100171.45
2018-09-17T14:14:33.825Z,100173.45
2018-09-17T14:17:14.762Z,100168.41
2018-09-17T14:19:50.672Z,100167.03
2018-09-17T14:22:34.734Z,100154.41
2018-09-17T14:25:09.491Z,100158.06
2018-09-17T14:27:44.384Z,100155.41
2018-09-17T14:30:19.563Z,100156.28
2018-09-17T14:33:04.683Z,100141.62
2018-09-17T14:36:03.592Z,100138.44
2018-09-17T14:39:08.836Z,100131.67
2018-09-17T14:41:49.504Z,100123.33
2018-09-17T14:44:24.139Z,100122.10
2018-09-17T14:47:00.015Z,100115.63
2018-09-17T14:49:41.574Z,100111.59
2018-09-17T14:52:18.590Z,100107.96
2018-09-17T14:55:03.595Z,100103.20
2018-09-17T14:57:46.899Z,100097.44
2018-09-17T15:00:27.241Z,100091.33
2018-09-17T15:03:09.089Z,100090.43
2018-09-17T15:05:45.671Z,100084.81
2018-09-17T15:08:20.099Z,100085.48
2018-09-17T15:10:54.007Z,100081.70
2018-09-17T15:13:26.514Z,100073.45
2018-09-17T15:16:02.130Z,100072.90
2018-09-17T15:18:47.333Z,100072.88
2018-09-17T15:21:21.602Z,100071.92
2018-09-17T15:23:57.616Z,100074.53
2018-09-17T15:26:31.799Z,100074.93
2018-09-17T15:29:07.184Z,100077.57
2018-09-17T15:31:40.436Z,100073.47
2018-09-17T15:34:16.035Z,100070.09
2018-09-17T15:36:50.721Z,100068.13
2018-09-17T15:39:25.077Z,100059.74
2018-09-17T15:41:59.621Z,100063.54
2018-09-17T15:44:34.657Z,100057.50
2018-09-17T15:47:07.492Z,100056.77
2018-09-17T15:49:45.715Z,100054.69
2018-09-17T15:52:21.159Z,100047.63
2018-09-17T15:54:53.631Z,100044.12
2018-09-17T15:57:26.519Z,100039.76
2018-09-17T15:59:59.807Z,100039.39
2018-09-17T16:02:32.380Z,100031.72
2018-09-17T16:05:06.804Z,100027.88
2018-09-17T16:07:47.935Z,100027.46
2018-09-17T16:10:21.570Z,100033.23
2018-09-17T16:12:58.060Z,100029.34
2018-09-17T16:15:32.806Z,100025.22
2018-09-17T16:18:09.504Z,100024.95
2018-09-17T16:20:45.969Z,100020.59
2018-09-17T16:23:20.670Z,100014.95
2018-09-17T16:25:55.729Z,100015.44
2018-09-17T16:28:29.303Z,100016.27
2018-09-17T16:31:03.433Z,100016.97
2018-09-17T16:33:37.994Z,100020.12
2018-09-17T16:36:11.968Z,100016.85
2018-09-17T16:38:45.855Z,100018.69
2018-09-17T16:41:22.487Z,100013.67
2018-09-17T16:43:55.896Z,100014.14
2018-09-17T16:46:31.501Z,100007.66
2018-09-17T16:49:08.592Z,100005.04
2018-09-17T16:51:42.864Z,100002.59
2018-09-17T16:54:16.460Z,100003.30
2018-09-17T16:56:50.764Z,100001.23
2018-09-17T16:59:24.943Z,99999.69
2018-09-17T17:01:58.758Z,100000.52
2018-09-17T17:04:37.297Z,100002.97
2018-09-17T17:07:10.105Z,100002.64
2018-09-17T17:09:51.524Z,99998.46
2018-09-17T17:12:25.901Z,99999.22
2018-09-17T17:15:04.236Z,99999.23
2018-09-17T17:17:41.931Z,100002.77
2018-09-17T17:20:17.713Z,99998.48
2018-09-17T17:22:52.706Z,100000.98
2018-09-17T17:25:27.327Z,100001.00
2018-09-17T17:28:03.937Z,99995.67
2018-09-17T17:30:38.612Z,100000.92
2018-09-17T17:33:14.275Z,99994.72
2018-09-17T17:35:50.323Z,99992.44
2018-09-17T17:38:24.884Z,99991.40
2018-09-17T17:40:58.536Z,99991.55
2018-09-17T17:43:32.189Z,99991.20
2018-09-17T17:46:04.886Z,99995.35
2018-09-17T17:48:40.024Z,99995.95
2018-09-17T17:51:19.736Z,99987.36
2018-09-17T17:53:59.452Z,99985.63
2018-09-17T17:56:33.988Z,99987.30
2018-09-17T17:59:07.724Z,99989.12
2018-09-17T18:01:43.362Z,99992.14
2018-09-17T18:04:16.069Z,99996.13
2018-09-17T18:06:54.594Z,99998.50
2018-09-17T18:09:29.896Z,99993.27
2018-09-17T18:12:03.032Z,99992.50
2018-09-17T18:14:38.246Z,99995.02
2018-09-17T18:17:13.306Z,99987.72
2018-09-17T18:19:49.265Z,99983.02
2018-09-17T18:22:22.108Z,99990.52
2018-09-17T18:24:55.653Z,99988.27
2018-09-17T18:27:30.461Z,99991.09
2018-09-17T18:30:06.078Z,99996.77
2018-09-17T18:32:40.603Z,99993.45
2018-09-17T18:35:16.456Z,99991.36
2018-09-17T18:37:52.452Z,99992.81
2018-09-17T18:40:25.136Z,99990.92
2018-09-17T18:42:58.741Z,99992.28
2018-09-17T18:45:34.898Z,99989.23
2018-09-17T18:48:10.270Z,99993.22
2018-09-17T18:50:51.158Z,99991.99
2018-09-17T18:53:26.440Z,99991.10
2018-09-17T18:56:01.858Z,99989.70
2018-09-17T18:58:37.218Z,99990.31
2018-09-17T19:01:11.677Z,99984.78
2018-09-17T19:03:49.401Z,99988.22
2018-09-17T19:06:25.222Z,99983.69
2018-09-17T19:08:59.027Z,99979.84
2018-09-17T19:11:34.165Z,99977.30
2018-09-17T19:14:15.934Z,99973.66
2018-09-17T19:16:55.321Z,99971.52
2018-09-17T19:19:31.321Z,99975.91
2018-09-17T19:22:12.753Z,99978.97
2018-09-17T19:24:47.209Z,99975.02
2018-09-17T19:29:14.760Z,99974.54
2018-09-17T19:31:48.748Z,99973.98
2018-09-17T19:34:21.248Z,99973.43
2018-09-17T19:37:13.835Z,99977.71
2018-09-17T19:39:55.004Z,99979.01
2018-09-17T19:42:32.134Z,99975.47
2018-09-17T19:45:16.641Z,99974.55
2018-09-17T19:47:53.783Z,99971.84
2018-09-17T19:50:34.405Z,99976.94
2018-09-17T19:53:15.462Z,99976.23
2018-09-17T19:55:50.213Z,99978.59
2018-09-17T19:58:31.981Z,99979.25
2018-09-17T20:01:11.584Z,99978.47
2018-09-17T20:03:46.330Z,99975.77
2018-09-17T20:06:22.461Z,99973.82
2018-09-17T20:08:56.801Z,99974.69
2018-09-17T20:11:29.223Z,99972.52
2018-09-17T20:14:03.652Z,99973.23
2018-09-17T20:16:38.780Z,99972.27
2018-09-17T20:19:12.605Z,99969.36
2018-09-17T20:21:47.682Z,99969.69
2018-09-17T20:24:22.649Z,99970.62
2018-09-17T20:27:08.011Z,99972.13
2018-09-17T20:29:42.625Z,99971.27
2018-09-17T20:32:16.981Z,99973.20
2018-09-17T20:34:53.027Z,99966.33
2018-09-17T20:37:26.401Z,99966.92
2018-09-17T20:40:01.818Z,99969.41
2018-09-17T20:42:34.609Z,99967.34
2018-09-17T20:45:08.275Z,99967.61
2018-09-17T20:47:41.716Z,99967.46
2018-09-17T20:50:14.460Z,99964.79
2018-09-17T20:52:49.064Z,99963.30
2018-09-17T20:57:57.484Z,99959.47
2018-09-17T21:00:33.837Z,99963.34
2018-09-17T21:03:15.349Z,99963.75
2018-09-17T21:05:49.220Z,99962.82
2018-09-17T21:08:22.787Z,99966.02
2018-09-17T21:10:56.978Z,99962.02
2018-09-17T21:13:31.461Z,99961.92
2018-09-17T21:16:08.229Z,99961.92
2018-09-17T21:18:43.099Z,99954.27
2018-09-17T21:21:20.235Z,99955.00
2018-09-17T21:23:54.541Z,99956.48
2018-09-17T21:26:29.736Z,99954.63
2018-09-17T21:29:02.852Z,99948.87
2018-09-17T21:31:36.332Z,99948.58
2018-09-17T21:34:09.291Z,99944.27
2018-09-17T21:36:41.973Z,99941.12
2018-09-17T21:39:14.936Z,99945.50
2018-09-17T21:41:48.800Z,99942.45
2018-09-17T21:44:22.313Z,99939.00
2018-09-17T21:46:58.052Z,99938.42
2018-09-17T21:49:34.601Z,99938.26
2018-09-17T21:52:10.631Z,99938.30
2018-09-17T21:54:51.328Z,99932.30
2018-09-17T21:57:23.973Z,99928.98
2018-09-17T21:59:56.494Z,99931.57
2018-09-17T22:02:29.973Z,99928.73
2018-09-17T22:05:03.585Z,99927.78
2018-09-17T22:07:38.622Z,99924.02
2018-09-17T22:10:13.149Z,99929.80
2018-09-17T22:12:45.836Z,99924.05
2018-09-17T22:15:18.586Z,99919.11
2018-09-17T22:17:51.570Z,99918.58
2018-09-17T22:20:24.332Z,99921.08
2018-09-17T22:22:56.960Z,99920.56
2018-09-17T22:25:29.877Z,99922.13
2018-09-17T22:28:03.128Z,99918.91
2018-09-17T22:30:35.640Z,99916.66
2018-09-17T22:33:09.111Z,99911.00
2018-09-17T22:35:41.891Z,99905.83
2018-09-17T22:38:16.608Z,99903.03
2018-09-17T22:40:50.332Z,99901.45
2018-09-17T22:43:23.189Z,99894.39
2018-09-17T22:45:56.324Z,99892.73
2018-09-17T22:48:30.452Z,99893.30
2018-09-17T22:51:03.296Z,99893.96
2018-09-17T22:53:35.889Z,99890.87
2018-09-17T22:56:09.925Z,99888.04
2018-09-17T22:58:42.642Z,99888.03
2018-09-17T23:01:15.203Z,99892.99
2018-09-17T23:03:49.400Z,99885.79
2018-09-17T23:06:22.061Z,99886.91
2018-09-17T23:08:54.911Z,99884.13
2018-09-17T23:11:29.102Z,99881.37
2018-09-17T23:14:01.804Z,99871.88
2018-09-17T23:16:35.020Z,99877.98
2018-09-17T23:19:09.997Z,99871.52
2018-09-17T23:21:42.645Z,99870.09
2018-09-17T23:24:16.245Z,99868.81
2018-09-17T23:26:50.153Z,99868.25
2018-09-17T23:29:27.196Z,99868.52
2018-09-17T23:31:59.664Z,99873.14
2018-09-17T23:34:32.693Z,99868.80
2018-09-17T23:37:08.380Z,99861.95
2018-09-17T23:39:41.304Z,99868.11
2018-09-17T23:42:14.262Z,99863.50
2018-09-17T23:44:47.064Z,99861.63
2018-09-17T23:47:19.627Z,99862.59
2018-09-17T23:49:54.117Z,99861.05
2018-09-17T23:52:26.695Z,99862.64
2018-09-17T23:54:59.449Z,99860.94
2018-09-17T23:57:32.408Z,99857.30
